Time;durP1;ratioP1;P1;durP2;ratioP2;P2;SDS_P1;SDS_P2;PMS_P1;PMS_P2;Temp;Humidity;BMP_temperature;BMP_pressure;BME280_temperature;BME280_humidity;BME280_pressure;Samples;Min_cycle;Max_cycle;Signal;HPM_P1;HPM_P2
2022/01/24 00:00:05;;;;;;;9.43;3.63;;;21.50;54.20;;;;;;5010429;28;20040;-70
2022/01/24 00:02:35;;;;;;;9.02;3.67;;;21.50;54.40;;;;;;5008177;28;20022;-70
2022/01/24 00:05:01;;;;;;;8.63;3.35;;;21.50;54.40;;;;;;5012355;28;20034;-70
2022/01/24 00:07:27;;;;;;;11.98;3.50;;;21.50;54.40;;;;;;5010662;28;20060;-71
2022/01/24 00:09:58;;;;;;;12.55;3.55;;;21.50;54.50;;;;;;5010974;28;20108;-70
2022/01/24 00:12:33;;;;;;;9.93;3.45;;;21.50;54.60;;;;;;5008665;28;20030;-71
2022/01/24 00:28:10;;;;;;;6.20;3.00;;;21.50;54.70;;;;;;5013896;28;20482;-71
2022/01/24 00:30:37;;;;;;;6.43;3.05;;;21.50;55.00;;;;;;5011945;28;20117;-71
2022/01/24 00:33:03;;;;;;;6.25;3.22;;;21.50;55.00;;;;;;5012654;28;20033;-71
2022/01/24 00:35:30;;;;;;;12.10;3.20;;;21.50;54.90;;;;;;5012274;28;20056;-71
2022/01/24 00:37:59;;;;;;;9.20;3.30;;;21.50;55.00;;;;;;5013617;28;20079;-71
2022/01/24 00:40:26;;;;;;;42.03;3.85;;;21.50;55.00;;;;;;5012245;28;20097;-71
2022/01/24 00:43:00;;;;;;;14.07;3.55;;;21.50;55.70;;;;;;5012694;28;20029;-71
2022/01/24 00:48:19;;;;;;;13.45;3.40;;;21.50;54.80;;;;;;5013410;28;20038;-71
2022/01/24 00:53:38;;;;;;;8.93;3.67;;;21.50;54.90;;;;;;5012783;28;20029;-72
2022/01/24 00:56:05;;;;;;;8.40;3.15;;;21.50;54.80;;;;;;4995989;28;20065;-72
2022/01/24 00:58:31;;;;;;;14.48;3.30;;;21.50;55.00;;;;;;5012950;28;20409;-71
2022/01/24 01:00:56;;;;;;;11.88;3.50;;;21.50;55.00;;;;;;5012070;28;20033;-72
2022/01/24 01:03:24;;;;;;;10.68;4.07;;;21.50;55.00;;;;;;5013292;28;20030;-71
2022/01/24 01:06:07;;;;;;;8.90;3.90;;;21.50;55.00;;;;;;5013298;28;20039;-71
2022/01/24 01:19:34;;;;;;;9.77;3.65;;;21.50;54.90;;;;;;5012702;28;20026;-71
2022/01/24 01:22:00;;;;;;;13.73;3.50;;;21.40;54.80;;;;;;5011860;28;20029;-72
2022/01/24 01:24:27;;;;;;;7.97;3.22;;;21.50;54.80;;;;;;5012886;28;20030;-71
2022/01/24 01:27:05;;;;;;;10.00;3.35;;;21.50;54.90;;;;;;5012829;28;20029;-71
2022/01/24 01:29:45;;;;;;;13.70;3.55;;;21.40;54.90;;;;;;5012641;28;20530;-72
2022/01/24 01:56:04;;;;;;;8.80;3.70;;;21.40;54.70;;;;;;5011954;28;20108;-70
2022/01/24 01:58:30;;;;;;;7.32;3.03;;;21.40;54.80;;;;;;5012441;28;20112;-70
2022/01/24 02:00:58;;;;;;;9.57;3.30;;;21.40;54.80;;;;;;5011983;28;20108;-70
2022/01/24 02:03:26;;;;;;;8.55;2.75;;;21.40;54.80;;;;;;4994800;28;20083;-70
2022/01/24 02:05:51;;;;;;;7.68;3.10;;;21.40;54.60;;;;;;5012079;28;20053;-70
2022/01/24 02:08:18;;;;;;;6.72;3.00;;;21.40;54.60;;;;;;4994838;28;20025;-70
2022/01/24 02:10:44;;;;;;;8.23;2.97;;;21.40;54.60;;;;;;5011464;28;20125;-70
2022/01/24 02:13:11;;;;;;;7.88;3.60;;;21.40;54.70;;;;;;4994817;28;20029;-70
2022/01/24 02:25:51;;;;;;;7.72;3.38;;;21.40;54.90;;;;;;4992765;28;20040;-70
2022/01/24 02:28:20;;;;;;;7.97;2.75;;;21.40;54.70;;;;;;4991149;28;20034;-70
2022/01/24 02:33:23;;;;;;;4.88;2.72;;;21.40;54.80;;;;;;5011867;28;20474;-70
2022/01/24 02:35:49;;;;;;;6.65;3.05;;;21.40;54.70;;;;;;5011784;28;20026;-70
2022/01/24 02:48:23;;;;;;;7.03;2.60;;;21.40;54.90;;;;;;5012093;28;20038;-70
2022/01/24 02:49:15;;;;;;;7.40;3.00;;;21.40;55.00;;;;;;5011454;28;20482;-70
2022/01/24 02:51:47;;;;;;;5.03;2.83;;;21.40;55.10;;;;;;5011408;28;20040;-70
2022/01/24 02:54:23;;;;;;;7.45;3.15;;;21.40;55.30;;;;;;5011661;28;20029;-71
2022/01/24 02:56:49;;;;;;;6.78;2.80;;;21.40;55.20;;;;;;5011714;28;20092;-70
2022/01/24 02:59:15;;;;;;;5.07;2.47;;;21.40;55.30;;;;;;5011264;28;20030;-70
2022/01/24 03:01:45;;;;;;;5.88;2.80;;;21.40;55.10;;;;;;5011626;28;20033;-70
2022/01/24 03:04:10;;;;;;;6.00;2.75;;;21.40;54.90;;;;;;5011678;28;20026;-70
2022/01/24 03:06:36;;;;;;;7.70;3.05;;;21.40;55.20;;;;;;5011675;28;20089;-70
2022/01/24 03:09:04;;;;;;;8.23;3.10;;;21.40;55.40;;;;;;5011245;28;20076;-70
2022/01/24 03:11:54;;;;;;;7.65;2.70;;;21.40;55.40;;;;;;5011609;28;20026;-70
2022/01/24 03:14:18;;;;;;;5.47;2.60;;;21.40;55.30;;;;;;4994136;28;20038;-71
2022/01/24 03:16:44;;;;;;;7.55;2.72;;;21.40;55.30;;;;;;4995776;28;20030;-70
2022/01/24 03:19:11;;;;;;;4.97;2.60;;;21.40;55.40;;;;;;4997405;28;20026;-70
2022/01/24 03:21:37;;;;;;;5.88;2.70;;;21.40;55.40;;;;;;5013844;28;20055;-70
2022/01/24 03:24:03;;;;;;;5.25;2.40;;;21.40;55.60;;;;;;4997700;28;20506;-70
2022/01/24 03:26:29;;;;;;;7.13;2.80;;;21.40;55.50;;;;;;5015345;28;20030;-70
2022/01/24 03:28:54;;;;;;;4.60;2.47;;;21.40;55.50;;;;;;4997589;28;20371;-71
2022/01/24 03:31:20;;;;;;;7.00;2.63;;;21.40;55.40;;;;;;4981223;28;20026;-71
2022/01/24 03:33:46;;;;;;;9.40;2.60;;;21.40;55.60;;;;;;5015185;28;20045;-70
2022/01/24 03:36:11;;;;;;;5.55;2.75;;;21.40;55.50;;;;;;5014757;28;20088;-70
2022/01/24 03:38:37;;;;;;;6.05;2.30;;;21.40;55.70;;;;;;5014651;28;20028;-70
2022/01/24 03:41:03;;;;;;;6.90;2.95;;;21.40;55.40;;;;;;5014727;28;20029;-70
2022/01/24 03:43:29;;;;;;;5.93;2.83;;;21.40;55.40;;;;;;5013956;28;20113;-70
2022/01/24 03:46:14;;;;;;;5.93;2.30;;;21.40;55.30;;;;;;5014306;28;20040;-70
2022/01/24 03:48:45;;;;;;;6.53;2.58;;;21.40;55.70;;;;;;5014562;28;20056;-70
2022/01/24 03:51:12;;;;;;;5.57;2.60;;;21.40;55.40;;;;;;4980668;28;20065;-70
2022/01/24 03:53:39;;;;;;;5.50;2.63;;;21.40;55.80;;;;;;5014611;28;20037;-70
2022/01/24 03:56:06;;;;;;;3.92;2.47;;;21.40;55.50;;;;;;4996931;28;20026;-70
2022/01/24 03:58:33;;;;;;;8.85;2.80;;;21.40;55.60;;;;;;5014661;28;20022;-69
2022/01/24 04:00:59;;;;;;;7.30;2.78;;;21.40;55.70;;;;;;5013638;28;20092;-69
2022/01/24 04:03:25;;;;;;;5.75;2.42;;;21.40;55.40;;;;;;5014484;28;20025;-69
2022/01/24 04:05:51;;;;;;;6.32;2.55;;;21.40;55.30;;;;;;5013290;28;20044;-69
2022/01/24 04:08:16;;;;;;;4.35;2.72;;;21.40;55.50;;;;;;4980994;28;20030;-69
2022/01/24 04:10:45;;;;;;;5.50;2.47;;;21.40;55.60;;;;;;4996443;28;20026;-69
2022/01/24 04:13:35;;;;;;;6.65;2.80;;;21.40;55.60;;;;;;4996794;28;20030;-69
2022/01/24 04:21:20;;;;;;;6.13;2.42;;;21.40;55.70;;;;;;5013824;28;20024;-69
2022/01/24 04:23:52;;;;;;;7.50;2.70;;;21.40;55.40;;;;;;5014169;28;20018;-69
2022/01/24 04:26:18;;;;;;;5.25;2.70;;;21.40;55.50;;;;;;5012955;28;20099;-69
2022/01/24 04:28:44;;;;;;;5.90;2.55;;;21.40;55.40;;;;;;5012557;28;20029;-70
2022/01/24 04:31:10;;;;;;;4.78;2.60;;;21.40;55.70;;;;;;4995787;28;20505;-70
2022/01/24 04:33:35;;;;;;;6.95;2.78;;;21.40;55.60;;;;;;5013888;28;20033;-70
2022/01/24 04:36:02;;;;;;;5.53;2.60;;;21.40;55.90;;;;;;5013642;28;20501;-70
2022/01/24 04:38:27;;;;;;;6.40;2.67;;;21.40;55.60;;;;;;5014056;28;20034;-70
2022/01/24 04:40:58;;;;;;;5.22;2.70;;;21.40;55.80;;;;;;5013193;28;20629;-70
2022/01/24 04:43:51;;;;;;;9.27;2.40;;;21.40;55.50;;;;;;5012548;28;20502;-69
2022/01/24 04:51:55;;;;;;;5.22;2.25;;;21.40;55.80;;;;;;5013343;28;20026;-69
2022/01/24 04:57:08;;;;;;;7.07;2.28;;;21.40;55.90;;;;;;5013501;28;20029;-70
2022/01/24 04:59:34;;;;;;;5.78;2.42;;;21.40;55.70;;;;;;4995236;28;20113;-69
2022/01/24 05:02:01;;;;;;;5.45;2.53;;;21.40;55.60;;;;;;4995950;28;20479;-70
2022/01/24 05:04:27;;;;;;;6.85;2.65;;;21.40;55.60;;;;;;5011757;28;20034;-70
2022/01/24 05:06:53;;;;;;;5.55;2.53;;;21.40;55.80;;;;;;5013316;28;20457;-70
2022/01/24 05:09:20;;;;;;;4.60;2.63;;;21.40;56.00;;;;;;5012807;28;20029;-70
2022/01/24 05:11:54;;;;;;;5.55;2.65;;;21.40;55.90;;;;;;4995701;28;20514;-70
2022/01/24 05:25:18;;;;;;;4.57;2.45;;;21.40;56.10;;;;;;4995368;28;20402;-70
2022/01/24 05:27:45;;;;;;;5.10;2.65;;;21.40;56.00;;;;;;4995179;28;20030;-70
2022/01/24 05:30:11;;;;;;;5.50;2.55;;;21.40;56.10;;;;;;4994880;28;20022;-70
2022/01/24 05:32:37;;;;;;;6.97;2.40;;;21.40;56.00;;;;;;5011687;28;20490;-70
2022/01/24 05:35:03;;;;;;;4.03;2.50;;;21.40;56.10;;;;;;5012824;28;20026;-70
2022/01/24 05:37:29;;;;;;;4.43;2.60;;;21.40;56.10;;;;;;5012568;28;20033;-69
2022/01/24 05:39:55;;;;;;;4.00;2.47;;;21.40;56.20;;;;;;5011907;28;20018;-70
2022/01/24 05:42:21;;;;;;;5.05;2.10;;;21.40;56.00;;;;;;4995207;28;20110;-69
2022/01/24 05:44:50;;;;;;;3.90;2.13;;;21.40;55.90;;;;;;5012744;28;20395;-69
2022/01/24 05:47:17;;;;;;;4.30;2.63;;;21.40;55.80;;;;;;5012595;28;20552;-69
2022/01/24 05:49:43;;;;;;;7.10;2.33;;;21.40;55.70;;;;;;5012056;28;20561;-69
2022/01/24 05:52:09;;;;;;;3.97;2.13;;;21.40;56.00;;;;;;5012626;28;20109;-69
2022/01/24 05:54:40;;;;;;;5.65;2.47;;;21.40;55.90;;;;;;5012603;28;20442;-69
2022/01/24 05:57:07;;;;;;;10.05;2.63;;;21.40;55.80;;;;;;5012224;28;20454;-70
2022/01/24 05:59:33;;;;;;;6.80;2.40;;;21.40;55.90;;;;;;5011806;28;20442;-70
2022/01/24 06:01:59;;;;;;;6.45;2.78;;;21.40;56.00;;;;;;5012265;28;20483;-69
2022/01/24 06:04:25;;;;;;;6.63;2.65;;;21.40;55.80;;;;;;4994919;28;20112;-69
2022/01/24 06:06:51;;;;;;;4.25;2.40;;;21.40;56.20;;;;;;5012254;28;20026;-69
2022/01/24 06:09:17;;;;;;;6.63;2.53;;;21.40;56.00;;;;;;4994285;28;20057;-69
2022/01/24 06:11:43;;;;;;;3.63;2.28;;;21.40;56.10;;;;;;5011746;28;20449;-67
2022/01/24 06:14:10;;;;;;;4.68;2.20;;;21.40;56.10;;;;;;5012379;28;20475;-69
2022/01/24 06:16:35;;;;;;;4.22;2.45;;;21.40;55.80;;;;;;5012084;28;20030;-69
2022/01/24 06:19:01;;;;;;;4.22;2.38;;;21.40;56.00;;;;;;5012103;28;20037;-69
2022/01/24 06:21:27;;;;;;;7.35;2.50;;;21.40;56.00;;;;;;4994136;28;20040;-69
2022/01/24 06:23:53;;;;;;;10.68;3.60;;;21.40;56.20;;;;;;5012219;28;20033;-73
2022/01/24 06:26:19;;;;;;;6.97;4.90;;;21.20;53.70;;;;;;4994467;28;20389;-70
2022/01/24 06:28:44;;;;;;;12.27;4.53;;;20.30;47.60;;;;;;4994634;28;20034;-69
2022/01/24 06:31:10;;;;;;;5.78;3.70;;;20.10;48.30;;;;;;5011568;28;20525;-68
2022/01/24 06:33:36;;;;;;;7.70;3.40;;;20.30;49.50;;;;;;5011953;28;20112;-69
2022/01/24 06:36:02;;;;;;;10.32;3.08;;;20.50;50.00;;;;;;4994174;28;20383;-69
2022/01/24 06:38:28;;;;;;;9.25;2.80;;;20.60;50.40;;;;;;5012379;28;20030;-69
2022/01/24 06:40:54;;;;;;;13.30;2.75;;;20.70;50.70;;;;;;5011178;28;20034;-69
2022/01/24 06:43:20;;;;;;;11.20;2.75;;;20.80;50.90;;;;;;5012459;28;20025;-69
2022/01/24 06:45:46;;;;;;;7.28;2.10;;;20.90;51.10;;;;;;5011528;28;20562;-69
2022/01/24 06:48:12;;;;;;;4.82;2.08;;;20.90;51.20;;;;;;5011781;28;20505;-69
2022/01/24 06:50:37;;;;;;;5.68;2.28;;;21.00;51.30;;;;;;5010909;28;20101;-69
2022/01/24 06:53:03;;;;;;;4.55;1.75;;;21.00;51.30;;;;;;5016108;28;20247;-68
2022/01/24 06:55:29;;;;;;;5.78;1.70;;;21.10;51.50;;;;;;5015545;28;20088;-68
2022/01/24 06:57:55;;;;;;;5.10;1.67;;;21.10;51.50;;;;;;5016054;28;20041;-70
2022/01/24 07:00:26;;;;;;;3.72;1.70;;;21.10;51.40;;;;;;5015064;28;20014;-69
2022/01/24 07:02:53;;;;;;;4.70;1.77;;;21.20;51.60;;;;;;5015686;28;20112;-69
2022/01/24 07:05:19;;;;;;;3.78;1.90;;;21.10;51.60;;;;;;5014520;28;20406;-69
2022/01/24 07:07:45;;;;;;;4.82;1.98;;;21.20;51.70;;;;;;4998055;28;20466;-69
2022/01/24 07:10:11;;;;;;;4.80;1.77;;;21.20;51.70;;;;;;5013920;28;20036;-68
2022/01/24 07:12:37;;;;;;;3.40;1.50;;;21.20;51.70;;;;;;5015468;28;20049;-68
2022/01/24 07:15:08;;;;;;;5.15;1.80;;;21.20;51.80;;;;;;5015511;28;20036;-69
2022/01/24 07:17:59;;;;;;;3.97;1.65;;;21.20;51.80;;;;;;5015089;28;20041;-70
2022/01/24 07:20:21;;;;;;;3.03;1.38;;;21.20;51.90;;;;;;4997319;28;20029;-70
2022/01/24 07:22:47;;;;;;;4.55;1.60;;;21.20;52.60;;;;;;5015057;28;20048;-69
2022/01/24 07:25:13;;;;;;;3.05;1.55;;;21.20;52.00;;;;;;5015290;28;20386;-70
2022/01/24 07:27:38;;;;;;;2.50;1.60;;;21.20;52.10;;;;;;5015055;28;20038;-69
2022/01/24 07:30:05;;;;;;;4.38;1.45;;;21.20;52.10;;;;;;5014543;28;20034;-69
2022/01/24 07:32:31;;;;;;;4.97;1.60;;;21.20;52.30;;;;;;5015211;28;20025;-69
2022/01/24 07:34:58;;;;;;;5.13;1.70;;;21.20;52.30;;;;;;5015216;28;20133;-69
2022/01/24 07:37:25;;;;;;;2.35;1.55;;;21.20;52.20;;;;;;5014768;28;20026;-69
2022/01/24 07:39:52;;;;;;;5.50;1.60;;;21.20;52.30;;;;;;5014492;28;20026;-70
2022/01/24 07:42:28;;;;;;;3.53;1.85;;;21.30;52.50;;;;;;5012233;28;20394;-69
2022/01/24 07:44:56;;;;;;;7.10;1.90;;;21.20;52.30;;;;;;5014796;28;20394;-70
2022/01/24 07:47:21;;;;;;;3.88;2.00;;;21.20;52.60;;;;;;5014605;28;20022;-69
2022/01/24 07:49:47;;;;;;;5.60;1.48;;;21.20;52.50;;;;;;5014106;28;20033;-69
2022/01/24 07:52:13;;;;;;;5.15;1.65;;;21.20;52.60;;;;;;5014303;28;20569;-69
2022/01/24 07:54:39;;;;;;;3.10;1.40;;;21.30;52.80;;;;;;4997130;28;20021;-69
2022/01/24 07:57:05;;;;;;;3.67;1.70;;;21.20;52.80;;;;;;5014836;28;20037;-69
2022/01/24 07:59:30;;;;;;;4.75;1.60;;;21.30;53.00;;;;;;5014039;28;20037;-70
2022/01/24 08:01:56;;;;;;;3.10;1.52;;;21.30;52.90;;;;;;5013990;28;20041;-70
2022/01/24 08:04:22;;;;;;;3.25;1.63;;;21.20;52.90;;;;;;5014189;28;20030;-69
2022/01/24 08:06:49;;;;;;;2.97;1.77;;;21.30;53.00;;;;;;5014351;28;20030;-70
2022/01/24 08:09:15;;;;;;;4.05;1.50;;;21.30;53.10;;;;;;4996239;28;20030;-70
2022/01/24 08:11:42;;;;;;;3.55;1.70;;;21.30;53.10;;;;;;5014063;28;20218;-70
2022/01/24 08:14:08;;;;;;;3.33;1.73;;;21.30;53.20;;;;;;5014296;28;20238;-70
2022/01/24 08:16:35;;;;;;;2.90;1.42;;;21.30;53.30;;;;;;5014267;28;20116;-70
2022/01/24 08:19:01;;;;;;;5.15;1.70;;;21.30;53.40;;;;;;5014047;28;20030;-70
2022/01/24 08:21:27;;;;;;;3.03;1.63;;;21.30;53.40;;;;;;5013935;28;20022;-70
2022/01/24 08:23:56;;;;;;;2.95;1.52;;;21.30;53.60;;;;;;5014094;28;20054;-70
2022/01/24 08:26:22;;;;;;;3.17;1.60;;;21.30;53.70;;;;;;4996305;28;20099;-70
2022/01/24 08:28:48;;;;;;;3.70;1.50;;;21.30;53.70;;;;;;5013833;28;20026;-70
2022/01/24 08:31:14;;;;;;;3.17;1.83;;;21.30;53.80;;;;;;4980081;28;20141;-70
2022/01/24 08:33:40;;;;;;;3.08;1.90;;;21.30;53.70;;;;;;5013959;28;20033;-70
2022/01/24 08:36:05;;;;;;;3.58;1.70;;;21.30;53.80;;;;;;5013473;28;20087;-70
2022/01/24 08:38:34;;;;;;;2.80;1.55;;;21.30;53.80;;;;;;5013799;28;20033;-69
2022/01/24 08:41:06;;;;;;;4.40;1.65;;;21.30;53.70;;;;;;5013649;28;20030;-70
2022/01/24 08:43:52;;;;;;;5.57;1.85;;;21.30;53.90;;;;;;5014289;28;20028;-70
2022/01/24 08:46:19;;;;;;;6.78;2.58;;;21.30;54.00;;;;;;4996498;28;20026;-70
2022/01/24 08:48:46;;;;;;;4.18;1.80;;;21.30;53.90;;;;;;5013353;28;20092;-70
2022/01/24 08:51:12;;;;;;;2.25;1.52;;;21.30;53.90;;;;;;5013146;28;20034;-70
2022/01/24 08:53:38;;;;;;;4.32;1.90;;;21.30;54.30;;;;;;5013638;28;20032;-70
2022/01/24 08:56:06;;;;;;;4.90;1.60;;;21.30;53.90;;;;;;5013625;28;20022;-70
2022/01/24 08:58:33;;;;;;;3.85;1.77;;;21.30;54.10;;;;;;5013212;28;20394;-70
2022/01/24 09:00:59;;;;;;;2.25;1.67;;;21.30;54.20;;;;;;5013193;28;20050;-70
2022/01/24 09:03:29;;;;;;;4.82;1.80;;;21.30;54.10;;;;;;5013477;28;20446;-70
2022/01/24 09:05:57;;;;;;;3.60;1.52;;;21.30;54.30;;;;;;4995703;28;20042;-70
2022/01/24 09:08:23;;;;;;;3.88;1.60;;;21.30;54.20;;;;;;5013219;28;20030;-69
2022/01/24 09:10:52;;;;;;;4.90;1.77;;;21.30;54.20;;;;;;5013063;28;20021;-71
2022/01/24 09:13:19;;;;;;;7.55;1.88;;;21.30;54.30;;;;;;5012958;28;20039;-70
2022/01/24 09:15:45;;;;;;;2.10;1.30;;;21.30;54.20;;;;;;5012834;28;20041;-71
2022/01/24 09:18:11;;;;;;;3.60;1.60;;;21.30;54.30;;;;;;5013218;28;20025;-70
2022/01/24 09:20:38;;;;;;;3.50;1.70;;;21.30;54.20;;;;;;5012443;28;20022;-70
2022/01/24 09:23:06;;;;;;;3.03;1.65;;;21.30;54.30;;;;;;5013020;28;20101;-70
2022/01/24 09:25:32;;;;;;;4.15;1.52;;;21.30;54.30;;;;;;4979831;28;20399;-71
2022/01/24 09:27:58;;;;;;;4.00;1.30;;;21.30;54.40;;;;;;4979523;28;20037;-70
2022/01/24 09:30:24;;;;;;;3.33;1.70;;;21.30;54.90;;;;;;4995321;28;20044;-70
2022/01/24 09:32:51;;;;;;;2.58;1.55;;;21.30;54.50;;;;;;4999923;28;20030;-71
2022/01/24 09:35:18;;;;;;;4.45;1.63;;;21.30;54.40;;;;;;5013300;28;20028;-71
2022/01/24 09:37:46;;;;;;;6.95;2.13;;;21.30;54.10;;;;;;5004087;28;20041;-70
2022/01/24 09:40:15;;;;;;;3.08;1.80;;;21.30;54.40;;;;;;5007538;28;20030;-71
2022/01/24 09:42:42;;;;;;;3.25;2.03;;;21.30;54.40;;;;;;5012953;28;20029;-71
2022/01/24 09:45:09;;;;;;;4.93;1.88;;;21.30;54.30;;;;;;5012961;28;20101;-70
2022/01/24 09:47:36;;;;;;;3.55;1.88;;;21.30;54.50;;;;;;5012674;28;20032;-70
2022/01/24 09:50:07;;;;;;;5.55;2.00;;;21.30;54.70;;;;;;5002210;28;20557;-70
2022/01/24 09:52:33;;;;;;;5.35;2.03;;;21.30;54.80;;;;;;4978997;28;20026;-70
2022/01/24 09:54:59;;;;;;;4.57;2.05;;;21.30;54.90;;;;;;5027708;28;20026;-70
2022/01/24 09:57:25;;;;;;;2.50;1.50;;;21.30;54.90;;;;;;4995036;28;20029;-70
2022/01/24 09:59:52;;;;;;;3.78;1.65;;;21.30;54.90;;;;;;5011582;28;20022;-70
2022/01/24 10:02:18;;;;;;;3.78;1.73;;;21.30;54.90;;;;;;5011683;28;20037;-71
2022/01/24 10:04:44;;;;;;;7.85;1.80;;;21.30;54.80;;;;;;4994790;28;20030;-70
2022/01/24 10:07:13;;;;;;;3.03;1.70;;;21.30;55.10;;;;;;5012424;28;20030;-71
2022/01/24 10:10:00;;;;;;;4.20;1.90;;;21.30;55.00;;;;;;4994126;28;20617;-70
2022/01/24 10:16:24;;;;;;;5.68;2.05;;;21.30;54.90;;;;;;4994709;28;20034;-71
2022/01/24 10:18:08;;;;;;;6.63;1.60;;;21.30;55.30;;;;;;4994748;28;20033;-70
2022/01/24 10:20:37;;;;;;;2.75;1.75;;;21.30;55.20;;;;;;5011566;28;20033;-70
2022/01/24 10:23:20;;;;;;;4.82;2.15;;;21.30;55.10;;;;;;5012281;28;20307;-71
2022/01/24 10:25:59;;;;;;;4.95;1.80;;;21.30;55.10;;;;;;5010705;28;20036;-70
2022/01/24 10:28:40;;;;;;;4.18;1.73;;;21.30;55.20;;;;;;5000415;28;20034;-70
2022/01/24 10:31:16;;;;;;;3.85;1.98;;;21.30;55.20;;;;;;4985145;28;20033;-70
2022/01/24 10:34:06;;;;;;;4.75;1.92;;;21.30;55.40;;;;;;4982984;28;20105;-70
2022/01/24 10:36:35;;;;;;;4.88;2.13;;;21.30;55.40;;;;;;4980442;28;20041;-70
2022/01/24 10:39:22;;;;;;;6.03;1.90;;;21.30;55.40;;;;;;4994679;28;20022;-71
2022/01/24 10:42:35;;;;;;;4.57;1.60;;;21.30;55.40;;;;;;5006811;28;20554;-71
2022/01/24 10:45:20;;;;;;;6.03;2.10;;;21.30;55.60;;;;;;4996245;28;20025;-71
2022/01/24 10:47:49;;;;;;;6.35;2.03;;;21.30;55.60;;;;;;4990494;28;20025;-70
2022/01/24 10:50:29;;;;;;;3.60;2.53;;;21.40;55.70;;;;;;5002510;28;20045;-71
2022/01/24 10:52:57;;;;;;;8.15;3.05;;;21.30;53.70;;;;;;5010124;28;20033;-70
2022/01/24 10:55:28;;;;;;;8.80;3.92;;;21.10;50.60;;;;;;4987721;28;20027;-71
2022/01/24 10:58:16;;;;;;;5.28;2.75;;;20.80;47.20;;;;;;5000250;28;20105;-71
2022/01/24 11:00:44;;;;;;;9.27;3.10;;;20.80;49.00;;;;;;4994029;28;20022;-70
2022/01/24 11:03:27;;;;;;;10.77;2.80;;;20.90;50.20;;;;;;5011747;28;20398;-71
2022/01/24 11:05:54;;;;;;;12.32;3.58;;;21.00;50.50;;;;;;5010472;28;20490;-71
2022/01/24 11:08:21;;;;;;;10.02;3.33;;;21.20;51.50;;;;;;4994222;28;20127;-71
2022/01/24 11:10:49;;;;;;;15.20;3.45;;;21.20;51.70;;;;;;5011696;28;20026;-72
2022/01/24 11:13:19;;;;;;;9.82;2.70;;;21.30;52.70;;;;;;5011657;28;20034;-71
2022/01/24 11:15:55;;;;;;;18.58;3.13;;;21.40;52.40;;;;;;5011507;28;20111;-71
2022/01/24 11:18:24;;;;;;;14.55;3.40;;;21.40;53.20;;;;;;5011027;28;20084;-71
2022/01/24 11:21:00;;;;;;;15.27;4.20;;;21.30;53.10;;;;;;5010276;28;20026;-72
2022/01/24 11:23:27;;;;;;;32.47;6.60;;;21.30;54.30;;;;;;5011630;28;20103;-71
2022/01/24 11:25:59;;;;;;;18.13;5.07;;;21.30;58.80;;;;;;5011241;28;20029;-71
2022/01/24 11:28:25;;;;;;;34.45;7.63;;;21.30;58.20;;;;;;5010464;28;20092;-71
2022/01/24 11:31:03;;;;;;;24.50;6.03;;;21.40;60.30;;;;;;5011384;28;20081;-71
2022/01/24 11:33:58;;;;;;;32.67;7.32;;;21.40;56.20;;;;;;5009542;28;20040;-70
2022/01/24 11:36:46;;;;;;;27.38;6.50;;;21.50;57.00;;;;;;5011014;28;20030;-70
2022/01/24 11:39:21;;;;;;;23.65;6.32;;;21.50;56.30;;;;;;4995656;28;20514;-70
2022/01/24 11:41:47;;;;;;;20.60;6.43;;;21.40;55.00;;;;;;4995247;28;20503;-70
2022/01/24 11:44:16;;;;;;;24.25;6.72;;;21.40;55.80;;;;;;4995435;28;20026;-70
2022/01/24 11:46:47;;;;;;;30.58;7.32;;;21.40;56.80;;;;;;4995263;28;20033;-70
2022/01/24 11:49:16;;;;;;;30.25;7.57;;;21.40;57.50;;;;;;5014141;28;20371;-70
2022/01/24 11:51:45;;;;;;;36.03;10.48;;;21.40;57.60;;;;;;5014489;28;20085;-71
2022/01/24 11:55:01;;;;;;;20.98;6.85;;;21.40;56.70;;;;;;4997492;28;20036;-70
2022/01/24 11:57:33;;;;;;;17.45;4.95;;;21.40;55.30;;;;;;4993054;28;20088;-70
2022/01/24 12:00:01;;;;;;;23.92;7.22;;;21.40;54.30;;;;;;5014416;28;20116;-69
2022/01/24 12:02:30;;;;;;;33.40;8.90;;;21.50;56.40;;;;;;5013985;28;20034;-70
2022/01/24 12:04:55;;;;;;;35.70;9.88;;;21.50;60.00;;;;;;5013407;28;20522;-70
2022/01/24 12:07:29;;;;;;;33.85;9.13;;;21.50;62.50;;;;;;5014132;28;20117;-69
2022/01/24 12:10:25;;;;;;;39.20;10.65;;;21.50;57.70;;;;;;4996712;28;20474;-70
2022/01/24 12:13:03;;;;;;;30.15;8.50;;;21.60;57.10;;;;;;4996671;28;20038;-70
2022/01/24 12:15:40;;;;;;;26.85;7.25;;;21.60;57.20;;;;;;5013895;28;20030;-70
2022/01/24 12:18:16;;;;;;;25.70;7.32;;;21.60;57.00;;;;;;5013807;28;20125;-69
2022/01/24 12:20:42;;;;;;;21.98;6.93;;;21.60;57.00;;;;;;4996457;28;20588;-71
2022/01/24 12:23:19;;;;;;;27.83;7.03;;;21.60;56.40;;;;;;5014073;28;20064;-70
2022/01/24 12:25:57;;;;;;;24.42;6.78;;;21.70;56.50;;;;;;5014014;28;20030;-70
2022/01/24 12:28:42;;;;;;;38.90;7.00;;;21.70;56.70;;;;;;5008408;28;20033;-71
2022/01/24 12:31:10;;;;;;;25.98;6.53;;;21.60;56.00;;;;;;4994138;28;20530;-71
2022/01/24 12:33:41;;;;;;;26.77;6.78;;;21.60;55.20;;;;;;4994246;28;20044;-71
2022/01/24 12:36:11;;;;;;;19.48;6.10;;;21.50;54.40;;;;;;4978249;28;20479;-71
2022/01/24 12:38:44;;;;;;;24.65;7.88;;;21.50;54.20;;;;;;5013925;28;20021;-71
2022/01/24 12:41:35;;;;;;;30.77;7.97;;;21.50;54.90;;;;;;4995959;28;20034;-71
2022/01/24 12:46:31;;;;;;;20.35;6.78;;;21.60;55.40;;;;;;5028084;28;20018;-71
2022/01/24 12:48:59;;;;;;;25.80;6.63;;;21.60;54.60;;;;;;5012448;28;20116;-71
2022/01/24 12:51:27;;;;;;;26.58;6.53;;;21.60;56.10;;;;;;5013262;28;20113;-71
2022/01/24 12:53:54;;;;;;;22.27;7.20;;;21.50;54.90;;;;;;5013244;28;20505;-72
2022/01/24 12:56:29;;;;;;;18.80;6.90;;;21.60;57.80;;;;;;4995333;28;20529;-69
2022/01/24 12:58:56;;;;;;;13.55;5.25;;;21.30;56.60;;;;;;5013606;28;20030;-70
2022/01/24 13:01:32;;;;;;;17.23;5.28;;;21.30;52.00;;;;;;4995424;28;20029;-70
2022/01/24 13:04:11;;;;;;;17.48;6.50;;;21.30;51.80;;;;;;4995931;28;20054;-70
2022/01/24 13:06:39;;;;;;;28.33;7.25;;;21.30;51.00;;;;;;5012882;28;20033;-70
2022/01/24 13:09:19;;;;;;;27.85;6.55;;;21.40;50.80;;;;;;4995808;28;20041;-70
2022/01/24 13:11:50;;;;;;;22.95;6.55;;;21.40;50.60;;;;;;5012915;28;20495;-70
2022/01/24 13:14:41;;;;;;;22.02;7.38;;;21.40;51.70;;;;;;5012172;28;20109;-70
2022/01/24 13:23:03;;;;;;;22.77;5.93;;;21.50;54.00;;;;;;5012964;28;20061;-70
2022/01/24 13:25:31;;;;;;;22.70;6.18;;;21.50;54.40;;;;;;5013154;28;20029;-69
2022/01/24 13:27:59;;;;;;;23.92;5.60;;;21.50;54.10;;;;;;4959832;28;20038;-69
2022/01/24 13:30:31;;;;;;;20.98;6.10;;;21.50;56.30;;;;;;4975609;28;20121;-69
2022/01/24 13:33:12;;;;;;;22.50;7.50;;;21.50;56.30;;;;;;4975857;28;20041;-69
2022/01/24 13:35:40;;;;;;;17.35;5.68;;;21.50;55.10;;;;;;4993048;28;20096;-69
2022/01/24 13:38:21;;;;;;;17.00;5.22;;;21.60;55.10;;;;;;5023417;22;20104;-70
2022/01/24 13:41:08;;;;;;;17.13;6.00;;;21.60;55.10;;;;;;5010354;28;20551;-71
2022/01/24 13:43:45;;;;;;;16.42;6.22;;;21.60;55.50;;;;;;5011505;28;20025;-71
2022/01/24 13:46:12;;;;;;;14.27;5.57;;;21.50;53.20;;;;;;5007506;28;20457;-71
2022/01/24 13:48:44;;;;;;;19.05;5.38;;;21.50;53.10;;;;;;4991811;28;20069;-71
2022/01/24 13:51:12;;;;;;;14.10;5.30;;;21.50;52.90;;;;;;4991551;28;20042;-71
2022/01/24 13:53:43;;;;;;;14.73;5.60;;;21.50;53.00;;;;;;4993261;28;20065;-72
2022/01/24 13:56:29;;;;;;;12.98;5.20;;;21.40;52.60;;;;;;4993263;28;20037;-71
2022/01/24 13:59:08;;;;;;;14.55;5.00;;;21.40;52.20;;;;;;4992981;28;20506;-71
2022/01/24 14:01:36;;;;;;;11.88;4.25;;;21.40;51.70;;;;;;4988175;28;20109;-70
2022/01/24 14:04:06;;;;;;;15.60;4.82;;;21.40;51.50;;;;;;5003885;28;20080;-71
2022/01/24 14:06:36;;;;;;;15.38;4.60;;;21.40;52.70;;;;;;5011167;28;20037;-71
2022/01/24 14:09:09;;;;;;;12.85;4.30;;;21.50;52.90;;;;;;4993286;28;20548;-72
2022/01/24 14:11:44;;;;;;;10.25;4.45;;;21.60;54.10;;;;;;4991335;28;20041;-71
2022/01/24 14:14:15;;;;;;;13.57;3.85;;;21.70;53.30;;;;;;4992751;28;20043;-71
2022/01/24 14:16:55;;;;;;;10.90;4.38;;;21.70;52.90;;;;;;4990319;28;20046;-71
2022/01/24 14:19:29;;;;;;;11.35;3.80;;;21.70;53.70;;;;;;4990243;28;20037;-71
2022/01/24 14:22:12;;;;;;;14.75;4.22;;;21.70;54.90;;;;;;4999848;28;20018;-71
2022/01/24 14:24:57;;;;;;;10.63;3.72;;;21.70;55.30;;;;;;4973248;28;20391;-71
2022/01/24 14:27:45;;;;;;;14.27;3.95;;;21.80;57.40;;;;;;4995028;28;20036;-71
2022/01/24 14:30:25;;;;;;;8.93;3.67;;;21.70;58.00;;;;;;5011521;28;20535;-72
2022/01/24 14:33:09;;;;;;;12.02;3.78;;;21.80;58.30;;;;;;4999363;28;20426;-71
2022/01/24 14:35:52;;;;;;;9.55;3.40;;;21.80;56.70;;;;;;4990900;28;20030;-71
2022/01/24 14:38:47;;;;;;;12.23;3.90;;;21.70;55.30;;;;;;4992211;28;20053;-72
2022/01/24 14:41:44;;;;;;;13.32;3.63;;;21.70;55.80;;;;;;4992001;28;20034;-72
2022/01/24 14:46:56;;;;;;;9.23;2.63;;;21.70;55.70;;;;;;4994729;28;20025;-71
2022/01/24 14:49:26;;;;;;;6.20;2.72;;;21.70;55.70;;;;;;4991908;28;20026;-71
2022/01/24 14:51:54;;;;;;;8.43;2.97;;;21.70;55.80;;;;;;4992236;28;20062;-72